createdAt,value
2023-08-14T00:00:44.276Z,80.25
2023-08-14T00:03:47.572Z,80.66
2023-08-14T00:06:50.497Z,81.09
2023-08-14T00:09:53.682Z,80.87
2023-08-14T00:12:56.301Z,81.08
2023-08-14T00:15:59.326Z,81.25
2023-08-14T00:19:02.115Z,81.33
2023-08-14T00:22:05.213Z,81.88
2023-08-14T00:25:08.294Z,81.56
2023-08-14T00:28:11.410Z,81.95
2023-08-14T00:31:14.099Z,81.73
2023-08-14T00:34:17.085Z,82.20
2023-08-14T00:37:23.040Z,82.06
2023-08-14T00:40:26.073Z,81.70
2023-08-14T00:43:28.819Z,81.81
2023-08-14T00:46:33.021Z,82.06
2023-08-14T00:49:35.990Z,81.75
2023-08-14T00:52:44.861Z,81.54
2023-08-14T00:55:47.672Z,81.81
2023-08-14T00:58:51.345Z,82.14
2023-08-14T01:01:54.230Z,82.26
2023-08-14T01:04:57.640Z,82.03
2023-08-14T01:08:00.372Z,81.95
2023-08-14T01:11:29.669Z,84.12
2023-08-14T01:14:34.402Z,85.93
2023-08-14T01:17:39.590Z,84.97
2023-08-14T01:20:44.119Z,84.21
2023-08-14T01:24:05.690Z,82.87
2023-08-14T01:27:09.971Z,82.81
2023-08-14T01:30:13.048Z,82.66
2023-08-14T01:33:15.981Z,83.02
2023-08-14T01:36:40.323Z,82.75
2023-08-14T01:39:49.527Z,82.63
2023-08-14T01:43:00.812Z,83.03
2023-08-14T01:46:06.394Z,82.52
2023-08-14T01:49:11.650Z,83.17
2023-08-14T01:52:14.952Z,83.81
2023-08-14T01:55:17.930Z,84.48
2023-08-14T01:58:20.578Z,85.31
2023-08-14T02:01:23.706Z,84.76
2023-08-14T02:04:27.137Z,84.64
2023-08-14T02:07:30.331Z,83.97
2023-08-14T02:10:33.361Z,83.69
2023-08-14T02:13:36.675Z,84.77
2023-08-14T02:16:39.700Z,84.35
2023-08-14T02:19:42.306Z,84.81
2023-08-14T02:22:45.318Z,84.95
2023-08-14T02:25:48.026Z,85.80
2023-08-14T02:28:51.075Z,86.51
2023-08-14T02:31:53.856Z,85.93
2023-08-14T02:34:59.580Z,85.82
2023-08-14T02:38:05.179Z,85.86
2023-08-14T02:41:08.171Z,85.37
2023-08-14T02:44:10.866Z,85.22
2023-08-14T02:47:14.303Z,84.90
2023-08-14T02:50:17.067Z,84.92
2023-08-14T02:53:19.986Z,84.72
2023-08-14T02:56:22.633Z,85.55
2023-08-14T02:59:25.710Z,84.98
2023-08-14T03:02:28.481Z,85.30
2023-08-14T03:05:34.232Z,85.31
2023-08-14T03:08:36.882Z,85.24
2023-08-14T03:11:40.117Z,85.19
2023-08-14T03:14:42.896Z,85.04
2023-08-14T03:17:46.924Z,84.85
2023-08-14T03:20:50.248Z,85.13
2023-08-14T03:23:54.025Z,85.19
2023-08-14T03:26:56.640Z,85.56
2023-08-14T03:29:59.731Z,85.39
2023-08-14T03:33:03.163Z,85.56
2023-08-14T03:36:06.704Z,85.93
2023-08-14T03:39:09.420Z,85.93
2023-08-14T03:42:12.464Z,85.76
2023-08-14T03:45:15.091Z,85.77
2023-08-14T03:48:17.978Z,86.07
2023-08-14T03:51:20.810Z,86.29
2023-08-14T03:54:23.749Z,86.00
2023-08-14T03:57:26.421Z,85.83
2023-08-14T04:00:29.400Z,85.61
2023-08-14T04:03:32.425Z,85.97
2023-08-14T04:06:36.323Z,85.62
2023-08-14T04:09:39.376Z,86.26
2023-08-14T04:12:41.999Z,85.60
2023-08-14T04:15:45.005Z,85.38
2023-08-14T04:18:53.700Z,85.25
2023-08-14T04:21:56.729Z,85.72
2023-08-14T04:24:59.302Z,86.48
2023-08-14T04:28:02.348Z,89.02
2023-08-14T04:31:05.000Z,90.76
2023-08-14T04:34:10.545Z,91.51
2023-08-14T04:37:13.909Z,89.08
2023-08-14T04:40:17.043Z,88.79
2023-08-14T04:43:19.774Z,88.00
2023-08-14T04:46:53.362Z,87.87
2023-08-14T04:50:00.819Z,86.63
2023-08-14T04:53:06.545Z,86.35
2023-08-14T04:56:10.117Z,85.85
2023-08-14T04:59:13.043Z,85.19
2023-08-14T05:02:16.690Z,84.73
2023-08-14T05:05:21.088Z,84.47
2023-08-14T05:08:24.712Z,84.19
2023-08-14T05:11:27.673Z,84.30
2023-08-14T05:14:30.565Z,83.79
2023-08-14T05:17:33.592Z,83.50
2023-08-14T05:20:37.352Z,83.00
2023-08-14T05:23:40.284Z,82.50
2023-08-14T05:26:43.164Z,82.08
2023-08-14T05:29:48.318Z,81.64
2023-08-14T05:32:51.030Z,81.45
2023-08-14T05:35:54.140Z,80.49
2023-08-14T05:38:56.832Z,78.90
2023-08-14T05:41:59.798Z,77.69
2023-08-14T05:45:02.573Z,76.58
2023-08-14T05:48:07.558Z,74.87
2023-08-14T05:51:10.242Z,73.64
2023-08-14T05:54:13.278Z,72.94
2023-08-14T05:57:15.936Z,71.87
2023-08-14T06:00:20.571Z,70.79
2023-08-14T06:03:37.661Z,70.99
2023-08-14T06:06:46.091Z,70.00
2023-08-14T06:09:49.023Z,69.19
2023-08-14T06:12:52.664Z,67.51
2023-08-14T06:15:55.655Z,66.94
2023-08-14T06:18:58.324Z,65.72
2023-08-14T06:22:01.408Z,65.06
2023-08-14T06:25:04.317Z,64.04
2023-08-14T06:28:07.303Z,63.49
2023-08-14T06:31:10.514Z,63.02
2023-08-14T06:34:13.572Z,63.04
2023-08-14T06:37:16.760Z,62.69
2023-08-14T06:40:19.746Z,62.88
2023-08-14T06:43:22.385Z,62.44
2023-08-14T06:46:25.486Z,62.75
2023-08-14T06:49:28.931Z,62.61
2023-08-14T06:52:31.895Z,61.20
2023-08-14T06:55:34.562Z,60.45
2023-08-14T06:58:37.581Z,57.55
2023-08-14T07:01:40.248Z,57.93
2023-08-14T07:04:43.417Z,58.64
2023-08-14T07:07:46.073Z,57.42
2023-08-14T07:10:49.328Z,57.33
2023-08-14T07:13:51.970Z,57.50
2023-08-14T07:16:54.952Z,57.55
2023-08-14T07:19:57.669Z,56.86
2023-08-14T07:23:00.799Z,56.60
2023-08-14T07:26:12.600Z,55.48
2023-08-14T07:29:19.760Z,54.27
2023-08-14T07:32:22.724Z,55.23
2023-08-14T07:35:25.636Z,53.52
2023-08-14T07:38:28.526Z,52.13
2023-08-14T07:41:31.518Z,50.22
2023-08-14T07:44:34.096Z,50.17
2023-08-14T07:47:38.012Z,45.88
2023-08-14T07:50:40.759Z,49.13
2023-08-14T07:53:43.711Z,46.04
2023-08-14T07:56:48.106Z,45.79
2023-08-14T07:59:52.558Z,42.04
2023-08-14T08:02:55.535Z,44.77
2023-08-14T08:05:58.623Z,45.37
2023-08-14T08:09:01.256Z,44.56
2023-08-14T08:12:04.545Z,44.69
2023-08-14T08:15:07.509Z,42.43
2023-08-14T08:18:10.494Z,42.00
2023-08-14T08:21:13.402Z,42.82
2023-08-14T08:24:16.750Z,40.79
2023-08-14T08:27:19.314Z,40.61
2023-08-14T08:30:22.209Z,40.14
2023-08-14T08:33:27.851Z,39.25
2023-08-14T08:36:31.035Z,38.49
2023-08-14T08:39:33.658Z,38.55
2023-08-14T08:42:37.639Z,38.92
2023-08-14T08:45:42.445Z,38.06
2023-08-14T08:48:47.735Z,37.94
2023-08-14T08:51:52.870Z,37.89
2023-08-14T08:54:56.411Z,37.40
2023-08-14T08:57:59.902Z,37.56
2023-08-14T09:01:04.145Z,37.29
2023-08-14T09:04:07.101Z,37.36
2023-08-14T09:07:10.218Z,37.16
2023-08-14T09:10:13.535Z,37.20
2023-08-14T09:13:17.471Z,36.95
2023-08-14T09:16:28.572Z,37.55
2023-08-14T09:19:31.486Z,37.21
2023-08-14T09:22:34.074Z,37.52
2023-08-14T09:25:37.442Z,37.28
2023-08-14T09:28:40.406Z,37.08
2023-08-14T09:31:45.667Z,36.99
2023-08-14T09:34:48.735Z,36.88
2023-08-14T09:37:51.856Z,37.37
2023-08-14T09:40:58.557Z,36.50
2023-08-14T09:44:02.248Z,35.83
2023-08-14T09:47:06.422Z,35.60
2023-08-14T09:50:10.425Z,36.51
2023-08-14T09:53:13.078Z,36.84
2023-08-14T09:56:17.905Z,36.63
2023-08-14T09:59:21.174Z,35.92
2023-08-14T10:02:25.397Z,36.02
2023-08-14T10:05:28.998Z,35.65
2023-08-14T10:08:35.440Z,34.72
2023-08-14T10:11:38.896Z,34.14
2023-08-14T10:14:46.607Z,33.63
2023-08-14T10:18:02.482Z,32.66
2023-08-14T10:21:09.026Z,32.89
2023-08-14T10:24:13.299Z,31.99
2023-08-14T10:27:16.294Z,33.17
2023-08-14T10:30:26.860Z,33.48
2023-08-14T10:33:31.097Z,32.82
2023-08-14T10:36:34.170Z,32.57
2023-08-14T10:39:37.246Z,33.24
2023-08-14T10:42:44.569Z,32.58
2023-08-14T10:45:47.242Z,32.21
2023-08-14T10:48:50.866Z,32.32
2023-08-14T10:52:02.917Z,31.64
2023-08-14T10:55:16.654Z,31.60
2023-08-14T10:58:36.542Z,31.43
2023-08-14T11:01:39.648Z,31.05
2023-08-14T11:05:14.015Z,32.24
2023-08-14T11:08:17.632Z,31.84
2023-08-14T11:11:21.148Z,32.10
2023-08-14T11:14:24.520Z,31.85
2023-08-14T11:17:28.689Z,32.59
2023-08-14T11:20:31.978Z,31.87
2023-08-14T11:23:34.631Z,31.64
2023-08-14T11:26:37.553Z,30.45
2023-08-14T11:32:46.634Z,30.40
2023-08-14T11:35:49.448Z,30.26
2023-08-14T11:38:52.948Z,30.93
2023-08-14T11:41:55.650Z,31.76
2023-08-14T11:44:58.662Z,31.66
2023-08-14T11:48:02.306Z,31.52
2023-08-14T11:51:06.055Z,31.19
2023-08-14T11:54:10.726Z,28.80
2023-08-14T11:57:14.846Z,29.87
2023-08-14T12:00:23.774Z,29.90
2023-08-14T12:03:32.327Z,29.42
2023-08-14T12:06:35.513Z,28.68
2023-08-14T12:09:39.362Z,28.67
2023-08-14T12:12:51.470Z,29.25
2023-08-14T12:16:11.973Z,30.11
2023-08-14T12:19:15.087Z,30.92
2023-08-14T12:22:22.090Z,30.60
2023-08-14T12:25:25.353Z,31.11
2023-08-14T12:28:29.148Z,31.42
2023-08-14T12:31:31.837Z,31.60
2023-08-14T12:34:34.861Z,31.46
2023-08-14T12:37:37.754Z,30.76
2023-08-14T12:40:40.907Z,31.15
2023-08-14T12:43:43.804Z,31.27
2023-08-14T12:46:46.936Z,30.81
2023-08-14T12:49:49.560Z,30.81
2023-08-14T12:52:52.446Z,31.08
2023-08-14T12:59:05.632Z,31.15
2023-08-14T13:02:08.284Z,31.15
2023-08-14T13:05:11.296Z,31.08
2023-08-14T13:08:14.004Z,31.06
2023-08-14T13:11:19.410Z,31.09
2023-08-14T13:14:22.147Z,30.91
2023-08-14T13:17:25.166Z,31.19
2023-08-14T13:20:28.207Z,30.27
2023-08-14T13:23:31.229Z,30.43
2023-08-14T13:26:35.916Z,30.43
2023-08-14T13:29:41.480Z,30.91
2023-08-14T13:32:44.680Z,30.47
2023-08-14T13:35:47.840Z,30.74
2023-08-14T13:38:50.457Z,30.27
2023-08-14T13:41:54.361Z,30.34
2023-08-14T13:45:04.400Z,29.51
2023-08-14T13:48:15.648Z,29.53
2023-08-14T13:51:18.411Z,29.76
2023-08-14T13:54:21.342Z,29.92
2023-08-14T13:57:24.062Z,29.48
2023-08-14T14:00:30.149Z,29.56
2023-08-14T14:03:34.210Z,28.60
2023-08-14T14:06:36.804Z,28.58
2023-08-14T14:09:41.490Z,28.97
2023-08-14T14:12:59.570Z,28.87
2023-08-14T14:16:04.766Z,28.66
2023-08-14T14:19:07.479Z,28.24
2023-08-14T14:22:10.434Z,29.07
2023-08-14T14:25:14.258Z,28.93
2023-08-14T14:28:17.309Z,29.33
2023-08-14T14:31:19.979Z,28.85
2023-08-14T14:34:22.966Z,28.96
2023-08-14T14:37:25.621Z,29.14
2023-08-14T14:40:29.797Z,29.19
2023-08-14T14:43:34.705Z,29.09
2023-08-14T14:46:38.748Z,29.05
2023-08-14T14:49:41.477Z,29.16
2023-08-14T14:52:44.450Z,28.90
2023-08-14T14:55:47.069Z,29.65
2023-08-14T14:58:50.015Z,29.17
2023-08-14T15:01:52.750Z,29.72
2023-08-14T15:04:55.699Z,30.02
2023-08-14T15:07:58.797Z,30.09
2023-08-14T15:11:01.801Z,29.95
2023-08-14T15:14:04.895Z,30.05
2023-08-14T15:17:07.756Z,30.21
2023-08-14T15:20:11.392Z,30.36
2023-08-14T15:23:14.710Z,29.99
2023-08-14T15:26:17.286Z,29.85
2023-08-14T15:29:20.347Z,29.78
2023-08-14T15:32:23.015Z,29.73
2023-08-14T15:35:25.987Z,29.80
2023-08-14T15:38:28.623Z,29.64
2023-08-14T15:41:31.641Z,30.05
2023-08-14T15:44:34.267Z,29.98
2023-08-14T15:47:37.350Z,30.56
2023-08-14T15:50:40.041Z,30.20
2023-08-14T15:53:43.143Z,30.44
2023-08-14T15:56:45.744Z,30.13
2023-08-14T15:59:49.082Z,30.24
2023-08-14T16:02:51.716Z,29.82
2023-08-14T16:05:56.215Z,29.85
2023-08-14T16:08:58.801Z,30.02
2023-08-14T16:12:01.711Z,29.90
2023-08-14T16:15:04.835Z,30.46
2023-08-14T16:18:07.824Z,30.18
2023-08-14T16:21:10.671Z,30.59
2023-08-14T16:24:13.766Z,30.54
2023-08-14T16:27:16.550Z,30.97
2023-08-14T16:30:19.464Z,31.07
2023-08-14T16:33:22.209Z,32.11
2023-08-14T16:36:25.222Z,31.57
2023-08-14T16:39:27.985Z,30.93
2023-08-14T16:42:30.902Z,33.30
2023-08-14T16:45:33.489Z,33.21
2023-08-14T16:48:36.390Z,34.04
2023-08-14T16:51:39.118Z,34.90
2023-08-14T16:54:43.214Z,35.16
2023-08-14T16:57:46.003Z,36.46
2023-08-14T17:00:49.829Z,37.93
2023-08-14T17:03:52.555Z,39.28
2023-08-14T17:06:55.636Z,41.51
2023-08-14T17:09:59.093Z,43.07
2023-08-14T17:13:02.212Z,43.44
2023-08-14T17:16:05.540Z,43.96
2023-08-14T17:19:08.580Z,45.43
2023-08-14T17:22:11.439Z,46.19
2023-08-14T17:25:14.459Z,46.72
2023-08-14T17:28:17.105Z,46.22
2023-08-14T17:31:20.144Z,46.31
2023-08-14T17:34:23.052Z,47.31
2023-08-14T17:37:26.059Z,47.94
2023-08-14T17:40:29.149Z,47.84
2023-08-14T17:43:32.094Z,48.34
2023-08-14T17:46:34.767Z,49.64
2023-08-14T17:49:38.157Z,49.07
2023-08-14T17:52:40.790Z,49.66
2023-08-14T17:55:43.771Z,49.12
2023-08-14T17:58:46.832Z,49.35
2023-08-14T18:01:49.858Z,50.40
2023-08-14T18:04:52.862Z,50.76
2023-08-14T18:07:55.476Z,50.59
2023-08-14T18:11:02.672Z,50.55
2023-08-14T18:14:05.380Z,51.11
2023-08-14T18:17:08.356Z,51.89
2023-08-14T18:20:11.892Z,52.04
2023-08-14T18:23:14.770Z,52.86
2023-08-14T18:26:17.436Z,52.83
2023-08-14T18:29:20.437Z,53.37
2023-08-14T18:32:23.060Z,53.33
2023-08-14T18:35:26.086Z,54.87
2023-08-14T18:38:28.733Z,54.50
2023-08-14T18:41:31.655Z,55.08
2023-08-14T18:44:34.388Z,55.41
2023-08-14T18:47:37.420Z,55.74
2023-08-14T18:50:40.078Z,56.66
2023-08-14T18:53:43.604Z,57.07
2023-08-14T18:56:46.165Z,57.78
2023-08-14T18:59:49.111Z,58.10
2023-08-14T19:02:52.669Z,58.48
2023-08-14T19:06:00.563Z,58.57
2023-08-14T19:09:03.343Z,59.71
2023-08-14T19:12:08.465Z,60.25
2023-08-14T19:15:11.234Z,60.54
2023-08-14T19:18:14.397Z,60.86
2023-08-14T19:21:17.036Z,60.83
2023-08-14T19:24:19.946Z,61.17
2023-08-14T19:27:22.578Z,61.54
2023-08-14T19:30:25.462Z,62.03
2023-08-14T19:33:28.024Z,63.10
2023-08-14T19:36:31.535Z,63.47
2023-08-14T19:39:34.334Z,63.72
2023-08-14T19:42:38.442Z,64.48
2023-08-14T19:45:41.687Z,65.19
2023-08-14T19:48:45.565Z,65.50
2023-08-14T19:51:48.478Z,65.73
2023-08-14T19:54:51.687Z,65.99
2023-08-14T19:57:54.272Z,66.19
2023-08-14T20:01:00.979Z,67.07
2023-08-14T20:04:05.361Z,66.87
2023-08-14T20:07:08.059Z,66.91
2023-08-14T20:10:11.081Z,67.73
2023-08-14T20:13:14.711Z,67.42
2023-08-14T20:16:20.701Z,66.28
2023-08-14T20:19:25.540Z,67.08
2023-08-14T20:22:28.562Z,66.69
2023-08-14T20:25:31.331Z,66.77
2023-08-14T20:28:36.964Z,67.17
2023-08-14T20:31:39.535Z,68.46
2023-08-14T20:34:42.822Z,69.23
2023-08-14T20:37:45.603Z,69.25
2023-08-14T20:40:53.469Z,69.14
2023-08-14T20:43:56.073Z,69.11
2023-08-14T20:46:58.977Z,69.42
2023-08-14T20:50:01.644Z,69.93
2023-08-14T20:53:05.009Z,69.99
2023-08-14T20:56:07.911Z,69.69
2023-08-14T20:59:10.848Z,69.71
2023-08-14T21:02:13.558Z,70.10
2023-08-14T21:05:16.561Z,70.96
2023-08-14T21:08:19.198Z,70.89
2023-08-14T21:11:22.070Z,71.20
2023-08-14T21:14:24.795Z,71.68
2023-08-14T21:17:27.866Z,71.72
2023-08-14T21:20:30.505Z,72.11
2023-08-14T21:23:33.511Z,72.38
2023-08-14T21:26:37.494Z,73.29
2023-08-14T21:29:40.465Z,73.37
2023-08-14T21:32:43.277Z,72.77
2023-08-14T21:35:47.320Z,72.62
2023-08-14T21:38:49.924Z,73.55
2023-08-14T21:41:52.802Z,73.77
2023-08-14T21:44:55.464Z,73.97
2023-08-14T21:47:58.456Z,75.58
2023-08-14T21:51:01.172Z,75.47
2023-08-14T21:54:04.551Z,75.63
2023-08-14T21:57:07.221Z,75.66
2023-08-14T22:00:10.806Z,75.80
2023-08-14T22:03:13.240Z,77.52
2023-08-14T22:06:16.189Z,78.35
2023-08-14T22:09:18.805Z,78.35
2023-08-14T22:12:21.831Z,79.17
2023-08-14T22:15:29.904Z,79.12
2023-08-14T22:18:39.398Z,77.51
2023-08-14T22:21:42.209Z,79.60
2023-08-14T22:24:45.103Z,80.12
2023-08-14T22:27:47.698Z,80.19
2023-08-14T22:30:50.546Z,79.50
2023-08-14T22:33:53.160Z,77.84
2023-08-14T22:36:56.079Z,77.54
2023-08-14T22:39:58.783Z,79.22
2023-08-14T22:43:02.050Z,79.29
2023-08-14T22:46:04.619Z,78.39
2023-08-14T22:49:07.482Z,78.32
2023-08-14T22:52:10.105Z,78.41
2023-08-14T22:55:13.084Z,78.58
2023-08-14T22:58:15.692Z,78.42
2023-08-14T23:01:18.635Z,78.42
2023-08-14T23:04:21.628Z,78.31
2023-08-14T23:07:24.556Z,78.18
2023-08-14T23:10:27.174Z,77.68
2023-08-14T23:13:30.095Z,77.73
2023-08-14T23:16:32.788Z,77.63
2023-08-14T23:19:35.684Z,78.09
2023-08-14T23:22:38.396Z,78.43
2023-08-14T23:25:41.326Z,79.04
2023-08-14T23:28:44.025Z,79.20
2023-08-14T23:31:46.962Z,79.61
2023-08-14T23:34:49.532Z,79.59
2023-08-14T23:37:53.205Z,79.75
2023-08-14T23:40:55.857Z,79.41
2023-08-14T23:43:58.767Z,79.65
2023-08-14T23:47:03.541Z,80.46
2023-08-14T23:50:07.113Z,80.85
2023-08-14T23:53:09.744Z,81.19
2023-08-14T23:56:12.700Z,81.57
2023-08-14T23:59:15.361Z,82.54
